createdAt,value
2022-10-23T00:00:50.955Z,11.13
2022-10-23T00:03:23.865Z,11.14
2022-10-23T00:05:53.930Z,11.12
2022-10-23T00:08:25.925Z,11.13
2022-10-23T00:10:52.858Z,11.14
2022-10-23T00:13:22.673Z,11.07
2022-10-23T00:15:49.619Z,11.13
2022-10-23T00:18:19.246Z,11.14
2022-10-23T00:20:57.292Z,11.13
2022-10-23T00:23:46.987Z,11.12
2022-10-23T00:26:21.697Z,11.11
2022-10-23T00:28:59.897Z,11.12
2022-10-23T00:31:31.450Z,11.10
2022-10-23T00:34:00.255Z,11.10
2022-10-23T00:36:27.418Z,11.10
2022-10-23T00:38:54.498Z,11.09
2022-10-23T00:41:37.514Z,11.09
2022-10-23T00:44:20.642Z,11.09
2022-10-23T00:46:52.376Z,11.10
2022-10-23T00:49:29.172Z,11.11
2022-10-23T00:52:23.263Z,11.08
2022-10-23T00:54:51.163Z,11.07
2022-10-23T00:57:18.144Z,11.07
2022-10-23T00:59:48.266Z,11.05
2022-10-23T01:02:24.699Z,11.06
2022-10-23T01:04:54.462Z,11.02
2022-10-23T01:07:45.589Z,11.04
2022-10-23T01:10:39.209Z,11.02
2022-10-23T01:13:49.975Z,11.01
2022-10-23T01:16:41.298Z,11.00
2022-10-23T01:19:29.301Z,10.97
2022-10-23T01:22:19.418Z,11.02
2022-10-23T01:25:12.403Z,11.02
2022-10-23T01:28:01.232Z,11.04
2022-10-23T01:30:32.272Z,10.96
2022-10-23T01:33:33.421Z,11.03
2022-10-23T01:36:14.253Z,11.01
2022-10-23T01:39:23.838Z,11.04
2022-10-23T01:42:31.376Z,11.02
2022-10-23T01:45:48.291Z,11.04
2022-10-23T01:48:48.870Z,11.01
2022-10-23T01:54:29.099Z,11.02
2022-10-23T01:57:25.726Z,11.01
2022-10-23T02:00:16.380Z,11.02
2022-10-23T02:03:08.062Z,11.00
2022-10-23T02:05:43.797Z,11.01
2022-10-23T02:08:11.160Z,10.99
2022-10-23T02:10:47.232Z,10.98
2022-10-23T02:13:27.157Z,10.99
2022-10-23T02:16:31.768Z,10.98
2022-10-23T02:19:06.856Z,10.98
2022-10-23T02:22:09.309Z,10.99
2022-10-23T02:25:02.298Z,10.96
2022-10-23T02:28:08.427Z,10.96
2022-10-23T02:30:44.227Z,10.93
2022-10-23T02:33:12.854Z,10.92
2022-10-23T02:35:48.884Z,10.93
2022-10-23T02:38:41.627Z,10.93
2022-10-23T02:41:47.692Z,10.92
2022-10-23T02:44:47.270Z,10.92
2022-10-23T02:48:05.985Z,10.89
2022-10-23T02:51:20.081Z,10.88
2022-10-23T02:54:24.899Z,10.90
2022-10-23T02:57:20.218Z,10.91
2022-10-23T03:00:08.783Z,10.91
2022-10-23T03:02:44.467Z,10.92
2022-10-23T03:05:31.859Z,10.94
2022-10-23T03:08:00.782Z,10.94
2022-10-23T03:10:28.600Z,10.93
2022-10-23T03:12:59.919Z,10.93
2022-10-23T03:15:31.093Z,10.94
2022-10-23T03:18:02.208Z,10.96
2022-10-23T03:20:29.298Z,10.93
2022-10-23T03:23:01.768Z,10.92
2022-10-23T03:25:35.032Z,10.92
2022-10-23T03:28:01.982Z,10.88
2022-10-23T03:30:28.856Z,10.92
2022-10-23T03:32:59.001Z,10.87
2022-10-23T03:35:30.437Z,10.91
2022-10-23T03:38:00.320Z,10.91
2022-10-23T03:40:28.815Z,10.90
2022-10-23T03:42:55.770Z,10.90
2022-10-23T03:45:26.564Z,10.90
2022-10-23T03:47:58.557Z,10.90
2022-10-23T03:50:26.206Z,10.91
2022-10-23T03:52:54.623Z,10.91
2022-10-23T03:55:22.126Z,10.93
2022-10-23T03:57:48.956Z,10.94
2022-10-23T04:00:22.227Z,10.93
2022-10-23T04:02:55.123Z,10.93
2022-10-23T04:05:27.220Z,10.94
2022-10-23T04:07:54.639Z,10.91
2022-10-23T04:10:21.896Z,10.92
2022-10-23T04:12:51.212Z,10.90
2022-10-23T04:15:27.708Z,10.90
2022-10-23T04:17:57.914Z,10.88
2022-10-23T04:20:25.459Z,10.90
2022-10-23T04:22:52.415Z,10.90
2022-10-23T04:25:22.450Z,10.91
2022-10-23T04:27:57.395Z,10.89
2022-10-23T04:30:24.774Z,10.87
2022-10-23T04:32:52.315Z,10.87
2022-10-23T04:35:20.309Z,10.85
2022-10-23T04:37:47.291Z,10.79
2022-10-23T04:40:14.414Z,10.86
2022-10-23T04:42:41.652Z,10.84
2022-10-23T04:45:09.451Z,10.84
2022-10-23T04:47:36.400Z,10.81
2022-10-23T04:50:03.911Z,10.85
2022-10-23T04:52:30.847Z,10.80
2022-10-23T04:54:57.725Z,10.78
2022-10-23T04:57:24.745Z,10.84
2022-10-23T04:59:51.605Z,10.83
2022-10-23T05:02:18.603Z,10.82
2022-10-23T05:04:45.438Z,10.84
2022-10-23T05:07:12.411Z,10.86
2022-10-23T05:09:39.324Z,10.80
2022-10-23T05:12:06.447Z,10.85
2022-10-23T05:14:33.363Z,10.78
2022-10-23T05:17:09.199Z,10.83
2022-10-23T05:19:44.342Z,10.82
2022-10-23T05:22:13.111Z,10.80
2022-10-23T05:24:40.525Z,10.85
2022-10-23T05:27:07.452Z,10.83
2022-10-23T05:29:34.323Z,10.87
2022-10-23T05:32:05.350Z,10.86
2022-10-23T05:34:34.803Z,10.86
2022-10-23T05:37:07.753Z,10.89
2022-10-23T05:39:35.227Z,10.85
2022-10-23T05:42:02.459Z,10.90
2022-10-23T05:44:29.374Z,10.89
2022-10-23T05:46:56.262Z,10.88
2022-10-23T05:49:26.264Z,10.93
2022-10-23T05:51:53.391Z,10.90
2022-10-23T05:54:20.247Z,10.90
2022-10-23T05:56:47.202Z,10.82
2022-10-23T05:59:14.722Z,10.86
2022-10-23T06:01:43.841Z,10.80
2022-10-23T06:04:10.775Z,10.88
2022-10-23T06:06:37.743Z,10.82
2022-10-23T06:09:04.981Z,10.89
2022-10-23T06:11:35.015Z,10.91
2022-10-23T06:14:01.863Z,10.90
2022-10-23T06:16:28.921Z,10.92
2022-10-23T06:18:57.459Z,10.90
2022-10-23T06:21:24.695Z,10.88
2022-10-23T06:23:51.799Z,10.86
2022-10-23T06:26:19.773Z,10.87
2022-10-23T06:28:46.794Z,10.85
2022-10-23T06:31:15.998Z,10.85
2022-10-23T06:33:42.908Z,10.85
2022-10-23T06:36:10.725Z,10.82
2022-10-23T06:38:40.634Z,10.76
2022-10-23T06:41:13.042Z,10.82
2022-10-23T06:43:40.081Z,10.79
2022-10-23T06:46:07.738Z,10.85
2022-10-23T06:48:34.669Z,10.86
2022-10-23T06:51:06.735Z,10.88
2022-10-23T06:53:35.956Z,10.86
2022-10-23T06:56:04.591Z,10.86
2022-10-23T06:58:32.130Z,10.89
2022-10-23T07:01:05.090Z,10.87
2022-10-23T07:03:32.562Z,10.90
2022-10-23T07:06:04.371Z,10.85
2022-10-23T07:08:31.806Z,10.86
2022-10-23T07:11:07.329Z,10.87
2022-10-23T07:13:36.026Z,10.89
2022-10-23T07:16:18.290Z,10.85
2022-10-23T07:18:48.338Z,10.89
2022-10-23T07:21:15.404Z,10.85
2022-10-23T07:23:42.325Z,10.86
2022-10-23T07:26:12.111Z,10.90
2022-10-23T07:28:39.078Z,10.89
2022-10-23T07:31:06.002Z,10.88
2022-10-23T07:33:33.052Z,10.86
2022-10-23T07:36:00.093Z,10.89
2022-10-23T07:38:28.155Z,10.91
2022-10-23T07:40:57.881Z,10.93
2022-10-23T07:43:26.103Z,10.95
2022-10-23T07:45:54.057Z,10.96
2022-10-23T07:48:21.785Z,10.96
2022-10-23T07:50:48.694Z,10.95
2022-10-23T07:53:21.514Z,10.98
2022-10-23T07:56:37.883Z,11.02
2022-10-23T07:59:05.053Z,11.02
2022-10-23T08:01:35.061Z,10.99
2022-10-23T08:04:02.178Z,11.08
2022-10-23T08:06:30.067Z,11.09
2022-10-23T08:08:59.884Z,11.14
2022-10-23T08:11:35.188Z,11.18
2022-10-23T08:14:04.684Z,11.22
2022-10-23T08:16:37.562Z,11.28
2022-10-23T08:19:06.838Z,11.31
2022-10-23T08:21:33.853Z,11.39
2022-10-23T08:24:01.497Z,11.37
2022-10-23T08:26:31.592Z,11.49
2022-10-23T08:28:59.801Z,11.54
2022-10-23T08:31:27.029Z,11.57
2022-10-23T08:33:53.918Z,11.60
2022-10-23T08:36:25.603Z,11.68
2022-10-23T08:38:54.779Z,11.73
2022-10-23T08:41:30.993Z,11.77
2022-10-23T08:44:13.433Z,11.83
2022-10-23T08:46:45.799Z,11.88
2022-10-23T08:49:30.854Z,11.93
2022-10-23T08:52:02.593Z,11.95
2022-10-23T08:55:01.604Z,12.05
2022-10-23T08:57:38.780Z,12.11
2022-10-23T09:00:14.509Z,12.16
2022-10-23T09:02:50.266Z,12.19
2022-10-23T09:05:47.035Z,12.27
2022-10-23T09:08:43.261Z,12.28
2022-10-23T09:11:30.797Z,12.35
2022-10-23T09:14:24.421Z,12.37
2022-10-23T09:17:20.141Z,12.40
2022-10-23T09:19:47.046Z,12.42
2022-10-23T09:22:14.191Z,12.47
2022-10-23T09:24:43.432Z,12.44
2022-10-23T09:27:16.985Z,12.52
2022-10-23T09:29:49.799Z,12.57
2022-10-23T09:32:16.782Z,12.62
2022-10-23T09:34:53.297Z,12.62
2022-10-23T09:37:24.617Z,12.65
2022-10-23T09:40:02.838Z,12.68
2022-10-23T09:42:30.105Z,12.69
2022-10-23T09:44:57.586Z,12.75
2022-10-23T09:47:26.121Z,12.80
2022-10-23T09:49:55.521Z,12.81
2022-10-23T09:52:48.575Z,12.86
2022-10-23T09:55:26.143Z,12.90
2022-10-23T09:58:00.559Z,12.95
2022-10-23T10:00:28.078Z,12.97
2022-10-23T10:03:06.596Z,13.01
2022-10-23T10:05:38.873Z,13.07
2022-10-23T10:08:28.962Z,13.09
2022-10-23T10:11:12.613Z,13.11
2022-10-23T10:13:48.639Z,13.16
2022-10-23T10:16:33.710Z,13.19
2022-10-23T10:19:13.683Z,13.21
2022-10-23T10:21:58.933Z,13.24
2022-10-23T10:24:54.235Z,13.28
2022-10-23T10:27:49.801Z,13.33
2022-10-23T10:30:22.610Z,13.34
2022-10-23T10:33:05.372Z,13.38
2022-10-23T10:35:55.029Z,13.41
2022-10-23T10:38:37.233Z,13.44
2022-10-23T10:41:29.972Z,13.44
2022-10-23T10:44:14.975Z,13.47
2022-10-23T10:46:44.671Z,13.49
2022-10-23T10:49:35.598Z,13.50
2022-10-23T10:52:14.575Z,13.50
2022-10-23T10:54:53.603Z,13.58
2022-10-23T10:57:38.381Z,13.62
2022-10-23T11:00:14.783Z,13.64
2022-10-23T11:02:51.926Z,13.65
2022-10-23T11:05:55.703Z,13.70
2022-10-23T11:08:50.005Z,13.70
2022-10-23T11:11:32.135Z,13.69
2022-10-23T11:13:59.380Z,13.74
2022-10-23T11:16:29.066Z,13.75
2022-10-23T11:19:26.759Z,13.78
2022-10-23T11:22:07.142Z,13.80
2022-10-23T11:25:04.680Z,13.83
2022-10-23T11:27:58.149Z,13.84
2022-10-23T11:30:54.958Z,13.82
2022-10-23T11:33:44.870Z,13.84
2022-10-23T11:36:17.438Z,13.90
2022-10-23T11:38:47.533Z,13.88
2022-10-23T11:41:28.519Z,13.91
2022-10-23T11:44:01.568Z,13.94
2022-10-23T11:46:38.259Z,13.93
2022-10-23T11:49:19.772Z,13.97
2022-10-23T11:51:46.725Z,13.96
2022-10-23T11:54:13.629Z,13.98
2022-10-23T11:57:10.590Z,14.01
2022-10-23T11:59:49.815Z,14.02
2022-10-23T12:02:32.153Z,14.06
2022-10-23T12:05:07.325Z,14.08
2022-10-23T12:07:40.063Z,14.12
2022-10-23T12:10:19.680Z,14.13
2022-10-23T12:13:06.644Z,14.14
2022-10-23T12:15:36.819Z,14.17
2022-10-23T12:18:18.093Z,14.21
2022-10-23T12:20:48.467Z,14.23
2022-10-23T12:23:21.384Z,14.24
2022-10-23T12:26:12.909Z,14.27
2022-10-23T12:29:28.080Z,14.31
2022-10-23T12:31:54.969Z,14.30
2022-10-23T12:35:12.803Z,14.34
2022-10-23T12:38:11.534Z,14.34
2022-10-23T12:40:39.502Z,14.36
2022-10-23T12:43:26.280Z,14.37
2022-10-23T12:46:16.952Z,14.39
2022-10-23T12:48:54.127Z,14.42
2022-10-23T12:51:24.762Z,14.41
2022-10-23T12:53:51.868Z,14.45
2022-10-23T12:56:19.444Z,14.46
2022-10-23T12:58:51.296Z,14.47
2022-10-23T13:01:33.560Z,14.47
2022-10-23T13:04:35.182Z,14.49
2022-10-23T13:07:04.224Z,14.50
2022-10-23T13:09:40.234Z,14.50
2022-10-23T13:12:08.982Z,14.47
2022-10-23T13:14:43.699Z,14.48
2022-10-23T13:17:12.220Z,14.53
2022-10-23T13:19:39.188Z,14.55
2022-10-23T13:22:19.703Z,14.52
2022-10-23T13:24:47.105Z,14.57
2022-10-23T13:27:33.167Z,14.57
2022-10-23T13:30:00.572Z,14.58
2022-10-23T13:32:30.385Z,14.58
2022-10-23T13:35:17.002Z,14.57
2022-10-23T13:37:51.244Z,14.56
2022-10-23T13:40:27.827Z,14.59
2022-10-23T13:42:55.998Z,14.59
2022-10-23T13:45:26.225Z,14.62
2022-10-23T13:47:53.461Z,14.59
2022-10-23T13:50:20.583Z,14.63
2022-10-23T13:52:47.594Z,14.63
2022-10-23T13:55:22.426Z,14.62
2022-10-23T13:57:49.483Z,14.62
2022-10-23T14:00:17.013Z,14.58
2022-10-23T14:02:44.773Z,14.61
2022-10-23T14:05:12.429Z,14.63
2022-10-23T14:07:39.361Z,14.64
2022-10-23T14:10:06.885Z,14.59
2022-10-23T14:12:44.520Z,14.63
2022-10-23T14:15:12.295Z,14.62
2022-10-23T14:17:39.228Z,14.61
2022-10-23T14:20:06.705Z,14.62
2022-10-23T14:22:33.735Z,14.61
2022-10-23T14:25:04.089Z,14.63
2022-10-23T14:27:31.337Z,14.58
2022-10-23T14:29:59.395Z,14.61
2022-10-23T14:32:26.281Z,14.61
2022-10-23T14:34:55.517Z,14.63
2022-10-23T14:37:22.404Z,14.60
2022-10-23T14:39:50.354Z,14.60
2022-10-23T14:42:17.670Z,14.61
2022-10-23T14:44:45.023Z,14.60
2022-10-23T14:47:12.099Z,14.62
2022-10-23T14:49:40.358Z,14.62
2022-10-23T14:52:08.332Z,14.61
2022-10-23T14:54:36.474Z,14.60
2022-10-23T14:57:04.331Z,14.62
2022-10-23T14:59:31.393Z,14.62
2022-10-23T15:01:58.403Z,14.61
2022-10-23T15:04:25.363Z,14.63
2022-10-23T15:06:53.179Z,14.62
2022-10-23T15:09:21.654Z,14.63
2022-10-23T15:11:49.739Z,14.62
2022-10-23T15:14:17.935Z,14.60
2022-10-23T15:16:45.811Z,14.60
2022-10-23T15:19:18.425Z,14.62
2022-10-23T15:21:47.398Z,14.63
2022-10-23T15:24:15.918Z,14.64
2022-10-23T15:26:46.021Z,14.64
2022-10-23T15:29:14.958Z,14.62
2022-10-23T15:31:45.368Z,14.59
2022-10-23T15:34:18.960Z,14.62
2022-10-23T15:36:47.104Z,14.62
2022-10-23T15:39:17.055Z,14.65
2022-10-23T15:41:44.664Z,14.66
2022-10-23T15:44:14.663Z,14.65
2022-10-23T15:46:41.743Z,14.64
2022-10-23T15:49:08.761Z,14.60
2022-10-23T15:51:36.999Z,14.61
2022-10-23T15:54:06.052Z,14.60
2022-10-23T15:56:34.216Z,14.61
2022-10-23T15:59:01.413Z,14.56
2022-10-23T16:01:28.627Z,14.57
2022-10-23T16:03:55.722Z,14.56
2022-10-23T16:06:22.938Z,14.53
2022-10-23T16:08:50.090Z,14.50
2022-10-23T16:11:23.855Z,14.53
2022-10-23T16:13:51.189Z,14.51
2022-10-23T16:16:18.578Z,14.45
2022-10-23T16:18:45.738Z,14.49
2022-10-23T16:21:27.409Z,14.47
2022-10-23T16:23:56.687Z,14.46
2022-10-23T16:26:23.942Z,14.42
2022-10-23T16:28:57.744Z,14.41
2022-10-23T16:31:26.394Z,14.39
2022-10-23T16:33:54.058Z,14.37
2022-10-23T16:36:21.268Z,14.37
2022-10-23T16:38:48.162Z,14.34
2022-10-23T16:41:15.118Z,14.31
2022-10-23T16:43:42.022Z,14.30
2022-10-23T16:46:18.229Z,14.32
2022-10-23T16:48:45.274Z,14.27
2022-10-23T16:51:18.833Z,14.28
2022-10-23T16:53:46.922Z,14.25
2022-10-23T16:56:15.809Z,14.22
2022-10-23T16:58:44.208Z,14.18
2022-10-23T17:01:16.132Z,14.09
2022-10-23T17:03:48.139Z,14.06
2022-10-23T17:06:18.190Z,14.01
2022-10-23T17:08:45.779Z,13.98
2022-10-23T17:11:37.163Z,13.95
2022-10-23T17:14:11.339Z,13.91
2022-10-23T17:16:41.094Z,13.93
2022-10-23T17:19:20.906Z,13.90
2022-10-23T17:21:55.879Z,13.86
2022-10-23T17:24:23.497Z,13.86
2022-10-23T17:26:50.733Z,13.87
2022-10-23T17:29:18.381Z,13.88
2022-10-23T17:31:48.301Z,13.88
2022-10-23T17:34:21.532Z,13.89
2022-10-23T17:36:51.452Z,13.84
2022-10-23T17:39:21.898Z,13.86
2022-10-23T17:41:48.832Z,13.83
2022-10-23T17:44:16.234Z,13.84
2022-10-23T17:46:43.590Z,13.85
2022-10-23T17:49:11.461Z,13.84
2022-10-23T17:51:41.705Z,13.80
2022-10-23T17:54:11.897Z,13.84
2022-10-23T17:56:40.701Z,13.82
2022-10-23T17:59:11.822Z,13.81
2022-10-23T18:01:39.749Z,13.80
2022-10-23T18:04:07.927Z,13.78
2022-10-23T18:06:43.647Z,13.80
2022-10-23T18:09:10.983Z,13.82
2022-10-23T18:11:43.925Z,13.78
2022-10-23T18:14:14.519Z,13.76
2022-10-23T18:16:41.840Z,13.77
2022-10-23T18:19:08.802Z,13.74
2022-10-23T18:21:36.434Z,13.76
2022-10-23T18:24:03.708Z,13.74
2022-10-23T18:26:35.012Z,13.71
2022-10-23T18:29:07.089Z,13.64
2022-10-23T18:31:35.481Z,13.65
2022-10-23T18:34:07.573Z,13.63
2022-10-23T18:36:39.679Z,13.57
2022-10-23T18:39:08.873Z,13.56
2022-10-23T18:41:39.179Z,13.53
2022-10-23T18:44:06.798Z,13.52
2022-10-23T18:46:34.391Z,13.50
2022-10-23T18:49:01.753Z,13.51
2022-10-23T18:51:31.259Z,13.49
2022-10-23T18:54:01.720Z,13.48
2022-10-23T18:56:28.964Z,13.49
2022-10-23T18:59:01.846Z,13.47
2022-10-23T19:01:30.190Z,13.51
2022-10-23T19:03:58.735Z,13.52
2022-10-23T19:06:26.095Z,13.48
2022-10-23T19:08:53.339Z,13.46
2022-10-23T19:11:22.274Z,13.46
2022-10-23T19:13:49.237Z,13.44
2022-10-23T19:16:35.377Z,13.49
2022-10-23T19:19:21.631Z,13.43
2022-10-23T19:21:49.707Z,13.49
2022-10-23T19:24:22.562Z,13.43
2022-10-23T19:26:50.043Z,13.46
2022-10-23T19:29:20.551Z,13.40
2022-10-23T19:31:51.730Z,13.39
2022-10-23T19:34:20.681Z,13.39
2022-10-23T19:36:48.401Z,13.38
2022-10-23T19:39:16.294Z,13.37
2022-10-23T19:41:43.721Z,13.38
2022-10-23T19:44:10.844Z,13.37
2022-10-23T19:46:38.118Z,13.32
2022-10-23T19:49:05.930Z,13.34
2022-10-23T19:51:32.965Z,13.33
2022-10-23T19:54:00.335Z,13.30
2022-10-23T19:56:27.620Z,13.30
2022-10-23T19:58:54.678Z,13.20
2022-10-23T20:01:24.385Z,13.28
2022-10-23T20:03:52.205Z,13.26
2022-10-23T20:06:23.112Z,13.25
2022-10-23T20:08:50.653Z,13.24
2022-10-23T20:11:26.936Z,13.26
2022-10-23T20:13:54.462Z,13.24
2022-10-23T20:16:33.458Z,13.25
2022-10-23T20:19:03.023Z,13.22
2022-10-23T20:21:30.474Z,13.19
2022-10-23T20:23:58.454Z,13.17
2022-10-23T20:26:25.380Z,13.20
2022-10-23T20:28:55.223Z,13.18
2022-10-23T20:31:25.293Z,13.16
2022-10-23T20:33:52.892Z,13.20
2022-10-23T20:36:29.100Z,13.20
2022-10-23T20:38:56.761Z,13.21
2022-10-23T20:41:33.777Z,13.18
2022-10-23T20:44:00.744Z,13.24
2022-10-23T20:46:29.670Z,13.21
2022-10-23T20:48:56.530Z,13.28
2022-10-23T20:51:24.648Z,13.29
2022-10-23T20:53:53.243Z,13.29
2022-10-23T20:56:31.023Z,13.28
2022-10-23T20:59:11.557Z,13.28
2022-10-23T21:01:43.448Z,13.28
2022-10-23T21:04:13.208Z,13.28
2022-10-23T21:06:57.533Z,13.26
2022-10-23T21:09:29.437Z,13.28
2022-10-23T21:11:56.368Z,13.26
2022-10-23T21:14:23.155Z,13.28
2022-10-23T21:16:50.063Z,13.27
2022-10-23T21:19:16.929Z,13.27
2022-10-23T21:21:44.498Z,13.26
2022-10-23T21:24:14.919Z,13.25
2022-10-23T21:26:42.266Z,13.25
2022-10-23T21:29:24.513Z,13.23
2022-10-23T21:32:11.328Z,13.21
2022-10-23T21:34:41.764Z,13.19
2022-10-23T21:37:13.939Z,13.22
2022-10-23T21:39:49.036Z,13.22
2022-10-23T21:42:16.102Z,13.20
2022-10-23T21:45:03.224Z,13.19
2022-10-23T21:47:30.888Z,13.17
2022-10-23T21:50:03.499Z,13.15
2022-10-23T21:52:30.453Z,13.12
2022-10-23T21:55:02.851Z,13.07
2022-10-23T21:57:36.898Z,13.09
2022-10-23T22:00:12.650Z,13.06
2022-10-23T22:02:50.506Z,13.07
2022-10-23T22:05:17.468Z,13.06
2022-10-23T22:07:47.137Z,13.03
2022-10-23T22:10:14.464Z,13.01
2022-10-23T22:12:41.720Z,13.01
2022-10-23T22:15:09.019Z,13.00
2022-10-23T22:17:35.918Z,12.98
2022-10-23T22:20:02.800Z,12.96
2022-10-23T22:22:29.556Z,12.96
2022-10-23T22:24:56.480Z,12.93
2022-10-23T22:27:23.262Z,12.95
2022-10-23T22:29:50.147Z,12.93
2022-10-23T22:32:17.029Z,12.89
2022-10-23T22:34:59.225Z,12.87
2022-10-23T22:37:26.414Z,12.84
2022-10-23T22:39:53.318Z,12.82
2022-10-23T22:42:20.661Z,12.81
2022-10-23T22:44:47.491Z,12.81
2022-10-23T22:47:14.265Z,12.81
2022-10-23T22:49:41.129Z,12.82
2022-10-23T22:52:07.892Z,12.80
2022-10-23T22:54:34.830Z,12.81
2022-10-23T22:57:01.802Z,12.78
2022-10-23T22:59:28.661Z,12.79
2022-10-23T23:01:55.681Z,12.80
2022-10-23T23:04:38.995Z,12.77
2022-10-23T23:07:08.666Z,12.78
2022-10-23T23:09:37.852Z,12.77
2022-10-23T23:12:05.765Z,12.78
2022-10-23T23:14:32.619Z,12.77
2022-10-23T23:16:59.443Z,12.75
2022-10-23T23:19:26.694Z,12.73
2022-10-23T23:21:58.275Z,12.73
2022-10-23T23:24:25.899Z,12.71
2022-10-23T23:26:53.265Z,12.65
2022-10-23T23:29:21.469Z,12.67
2022-10-23T23:31:53.957Z,12.65
2022-10-23T23:34:24.279Z,12.63
2022-10-23T23:36:51.284Z,12.61
2022-10-23T23:39:24.775Z,12.61
2022-10-23T23:41:54.242Z,12.61
2022-10-23T23:44:24.089Z,12.59
2022-10-23T23:46:55.527Z,12.58
2022-10-23T23:49:46.623Z,12.59
2022-10-23T23:52:14.870Z,12.57
2022-10-23T23:54:45.961Z,12.57
2022-10-23T23:57:20.006Z,12.56
2022-10-23T23:59:53.272Z,12.53
